createdAt,value
2024-04-18T00:00:30.021Z,86.70
2024-04-18T00:01:29.095Z,86.70
2024-04-18T00:02:29.092Z,86.70
2024-04-18T00:03:29.171Z,86.80
2024-04-18T00:04:29.175Z,86.49
2024-04-18T00:05:29.146Z,86.49
2024-04-18T00:06:29.085Z,86.39
2024-04-18T00:07:28.991Z,86.60
2024-04-18T00:08:29.040Z,86.49
2024-04-18T00:09:28.990Z,86.29
2024-04-18T00:10:29.008Z,86.33
2024-04-18T00:11:28.953Z,86.22
2024-04-18T00:12:28.999Z,86.33
2024-04-18T00:13:28.962Z,86.54
2024-04-18T00:14:28.908Z,86.85
2024-04-18T00:15:28.988Z,87.05
2024-04-18T00:16:28.887Z,87.26
2024-04-18T00:17:28.930Z,87.26
2024-04-18T00:18:29.010Z,87.26
2024-04-18T00:19:28.881Z,87.47
2024-04-18T00:20:28.887Z,86.95
2024-04-18T00:21:28.867Z,86.74
2024-04-18T00:22:28.821Z,86.43
2024-04-18T00:23:28.866Z,86.33
2024-04-18T00:24:29.014Z,86.12
2024-04-18T00:25:28.825Z,86.12
2024-04-18T00:26:28.797Z,86.02
2024-04-18T00:27:28.891Z,86.12
2024-04-18T00:28:28.782Z,85.71
2024-04-18T00:29:28.794Z,85.85
2024-04-18T00:30:28.769Z,86.16
2024-04-18T00:31:28.798Z,86.36
2024-04-18T00:32:28.778Z,86.47
2024-04-18T00:33:28.708Z,86.57
2024-04-18T00:34:28.701Z,86.57
2024-04-18T00:35:28.690Z,86.57
2024-04-18T00:36:28.780Z,86.99
2024-04-18T00:37:28.668Z,87.30
2024-04-18T00:38:28.674Z,86.99
2024-04-18T00:39:28.703Z,86.57
2024-04-18T00:40:28.632Z,86.57
2024-04-18T00:41:28.854Z,86.57
2024-04-18T00:42:28.653Z,86.68
2024-04-18T00:43:28.614Z,86.68
2024-04-18T00:44:28.610Z,86.78
2024-04-18T00:45:28.599Z,86.47
2024-04-18T00:46:28.587Z,86.47
2024-04-18T00:47:28.658Z,86.57
2024-04-18T00:48:28.638Z,86.68
2024-04-18T00:49:28.676Z,86.99
2024-04-18T00:50:28.527Z,87.09
2024-04-18T00:51:28.598Z,86.99
2024-04-18T00:52:28.499Z,86.68
2024-04-18T00:53:28.548Z,86.57
2024-04-18T00:54:28.518Z,86.68
2024-04-18T00:55:28.523Z,87.09
2024-04-18T00:56:28.446Z,87.09
2024-04-18T00:57:28.536Z,87.09
2024-04-18T00:58:28.464Z,87.19
2024-04-18T00:59:28.427Z,86.99
2024-04-18T01:00:28.468Z,86.99
2024-04-18T01:01:28.431Z,86.99
2024-04-18T01:02:28.410Z,87.09
2024-04-18T01:03:28.503Z,86.99
2024-04-18T01:04:28.575Z,86.99
2024-04-18T01:05:28.383Z,86.88
2024-04-18T01:06:28.368Z,86.99
2024-04-18T01:07:29.196Z,87.19
2024-04-18T01:08:28.346Z,87.19
2024-04-18T01:09:28.357Z,86.99
2024-04-18T01:10:28.372Z,86.99
2024-04-18T01:11:28.395Z,87.19
2024-04-18T01:12:28.320Z,87.19
2024-04-18T01:13:28.298Z,87.09
2024-04-18T01:14:28.251Z,87.09
2024-04-18T01:15:28.879Z,86.99
2024-04-18T01:16:28.246Z,86.78
2024-04-18T01:17:28.376Z,86.78
2024-04-18T01:18:28.275Z,87.09
2024-04-18T01:19:28.194Z,87.09
2024-04-18T01:20:28.194Z,87.19
2024-04-18T01:21:28.196Z,87.30
2024-04-18T01:22:28.169Z,86.99
2024-04-18T01:23:28.205Z,87.09
2024-04-18T01:24:28.208Z,87.30
2024-04-18T01:25:28.136Z,87.40
2024-04-18T01:26:28.146Z,87.30
2024-04-18T01:27:28.174Z,87.19
2024-04-18T01:28:28.099Z,87.19
2024-04-18T01:29:28.272Z,87.19
2024-04-18T01:30:28.095Z,87.30
2024-04-18T01:31:28.112Z,87.40
2024-04-18T01:32:28.105Z,87.40
2024-04-18T01:33:28.176Z,87.51
2024-04-18T01:34:28.097Z,87.71
2024-04-18T01:35:28.036Z,87.71
2024-04-18T01:36:28.348Z,87.71
2024-04-18T01:37:28.004Z,87.61
2024-04-18T01:38:27.990Z,87.61
2024-04-18T01:39:28.003Z,87.61
2024-04-18T01:40:28.706Z,87.51
2024-04-18T01:41:27.968Z,87.40
2024-04-18T01:42:27.959Z,87.40
2024-04-18T01:43:27.938Z,87.51
2024-04-18T01:44:27.940Z,87.51
2024-04-18T01:45:27.997Z,87.40
2024-04-18T01:46:27.929Z,87.30
2024-04-18T01:47:27.986Z,87.40
2024-04-18T01:48:28.020Z,87.40
2024-04-18T01:49:27.887Z,87.30
2024-04-18T01:50:27.886Z,87.40
2024-04-18T01:51:27.913Z,87.40
2024-04-18T01:52:27.852Z,87.51
2024-04-18T01:53:27.823Z,87.30
2024-04-18T01:54:27.823Z,87.19
2024-04-18T01:55:27.818Z,87.30
2024-04-18T01:56:27.808Z,87.40
2024-04-18T01:57:27.825Z,87.51
2024-04-18T01:58:27.771Z,87.61
2024-04-18T01:59:27.772Z,87.82
2024-04-18T02:00:27.833Z,88.02
2024-04-18T02:01:27.815Z,88.13
2024-04-18T02:02:27.725Z,88.02
2024-04-18T02:03:27.846Z,88.02
2024-04-18T02:04:27.810Z,87.92
2024-04-18T02:05:27.708Z,87.92
2024-04-18T02:06:27.739Z,87.92
2024-04-18T02:07:27.715Z,87.92
2024-04-18T02:08:27.662Z,88.02
2024-04-18T02:09:27.684Z,87.92
2024-04-18T02:10:27.689Z,87.92
2024-04-18T02:11:27.767Z,87.82
2024-04-18T02:12:27.649Z,87.71
2024-04-18T02:13:27.606Z,87.82
2024-04-18T02:14:27.620Z,87.92
2024-04-18T02:15:27.750Z,88.02
2024-04-18T02:16:27.572Z,88.02
2024-04-18T02:17:27.579Z,87.92
2024-04-18T02:18:27.605Z,87.82
2024-04-18T02:19:27.561Z,87.71
2024-04-18T02:20:27.532Z,87.71
2024-04-18T02:21:27.587Z,87.71
2024-04-18T02:22:27.511Z,87.71
2024-04-18T02:23:27.542Z,87.51
2024-04-18T02:24:27.559Z,87.61
2024-04-18T02:25:27.487Z,87.71
2024-04-18T02:26:27.488Z,87.82
2024-04-18T02:27:27.487Z,87.82
2024-04-18T02:28:27.467Z,87.82
2024-04-18T02:29:27.430Z,88.02
2024-04-18T02:30:27.908Z,88.13
2024-04-18T02:31:27.405Z,88.34
2024-04-18T02:32:27.442Z,88.34
2024-04-18T02:33:27.431Z,88.34
2024-04-18T02:34:27.384Z,88.23
2024-04-18T02:35:27.353Z,88.34
2024-04-18T02:36:27.466Z,88.44
2024-04-18T02:37:27.378Z,88.44
2024-04-18T02:38:27.334Z,88.54
2024-04-18T02:39:27.395Z,88.85
2024-04-18T02:40:27.309Z,89.06
2024-04-18T02:41:27.287Z,88.92
2024-04-18T02:42:27.463Z,88.71
2024-04-18T02:43:27.272Z,88.61
2024-04-18T02:44:27.296Z,88.61
2024-04-18T02:45:27.299Z,88.51
2024-04-18T02:46:27.253Z,88.40
2024-04-18T02:47:27.399Z,88.51
2024-04-18T02:48:27.279Z,88.51
2024-04-18T02:49:27.228Z,88.40
2024-04-18T02:50:27.211Z,88.40
2024-04-18T02:51:27.218Z,88.51
2024-04-18T02:52:27.212Z,88.51
2024-04-18T02:53:27.192Z,88.30
2024-04-18T02:54:27.174Z,88.20
2024-04-18T02:55:27.178Z,88.09
2024-04-18T02:56:27.142Z,88.30
2024-04-18T02:57:27.249Z,88.40
2024-04-18T02:58:27.126Z,88.40
2024-04-18T02:59:27.098Z,88.51
2024-04-18T03:00:27.174Z,88.61
2024-04-18T03:01:27.172Z,88.71
2024-04-18T03:02:27.268Z,88.82
2024-04-18T03:03:27.063Z,88.71
2024-04-18T03:04:27.126Z,88.82
2024-04-18T03:05:27.047Z,89.03
2024-04-18T03:06:27.047Z,88.82
2024-04-18T03:07:27.026Z,88.71
2024-04-18T03:08:27.015Z,88.71
2024-04-18T03:09:27.024Z,88.82
2024-04-18T03:10:27.012Z,88.92
2024-04-18T03:11:27.021Z,89.03
2024-04-18T03:12:26.998Z,89.17
2024-04-18T03:13:26.976Z,89.37
2024-04-18T03:14:26.974Z,89.58
2024-04-18T03:15:26.972Z,89.69
2024-04-18T03:16:26.919Z,89.58
2024-04-18T03:17:26.923Z,89.48
2024-04-18T03:18:26.975Z,89.58
2024-04-18T03:19:26.898Z,89.48
2024-04-18T03:20:26.917Z,89.48
2024-04-18T03:21:26.898Z,89.58
2024-04-18T03:22:26.947Z,89.69
2024-04-18T03:23:26.878Z,89.69
2024-04-18T03:24:26.859Z,89.58
2024-04-18T03:25:26.851Z,89.69
2024-04-18T03:26:26.811Z,89.48
2024-04-18T03:27:26.796Z,89.17
2024-04-18T03:28:27.111Z,89.27
2024-04-18T03:29:26.773Z,89.27
2024-04-18T03:30:26.786Z,89.37
2024-04-18T03:31:26.751Z,89.48
2024-04-18T03:32:26.806Z,89.48
2024-04-18T03:33:26.739Z,89.58
2024-04-18T03:34:26.719Z,89.48
2024-04-18T03:35:26.698Z,89.48
2024-04-18T03:36:26.737Z,89.58
2024-04-18T03:37:26.686Z,89.69
2024-04-18T03:38:26.760Z,89.79
2024-04-18T03:39:26.672Z,89.79
2024-04-18T03:40:26.798Z,89.79
2024-04-18T03:41:26.760Z,89.69
2024-04-18T03:42:26.740Z,89.58
2024-04-18T03:43:26.623Z,89.69
2024-04-18T03:44:26.636Z,89.69
2024-04-18T03:45:26.618Z,89.79
2024-04-18T03:46:26.587Z,89.79
2024-04-18T03:47:26.656Z,89.89
2024-04-18T03:48:26.641Z,89.89
2024-04-18T03:49:26.548Z,89.79
2024-04-18T03:50:26.553Z,89.79
2024-04-18T03:51:26.618Z,89.69
2024-04-18T03:52:26.527Z,89.73
2024-04-18T03:53:26.571Z,89.94
2024-04-18T03:54:26.525Z,89.94
2024-04-18T03:55:27.286Z,90.04
2024-04-18T03:56:26.480Z,90.10
2024-04-18T03:57:26.513Z,90.04
2024-04-18T03:58:26.457Z,90.04
2024-04-18T03:59:26.436Z,90.04
2024-04-18T04:00:26.557Z,89.94
2024-04-18T04:01:26.542Z,90.04
2024-04-18T04:02:27.364Z,90.10
2024-04-18T04:03:26.458Z,90.14
2024-04-18T04:04:26.482Z,90.25
2024-04-18T04:05:26.386Z,90.14
2024-04-18T04:06:26.423Z,90.14
2024-04-18T04:07:26.452Z,90.04
2024-04-18T04:08:26.350Z,90.04
2024-04-18T04:09:26.412Z,90.04
2024-04-18T04:10:26.394Z,90.14
2024-04-18T04:11:26.483Z,90.14
2024-04-18T04:12:26.399Z,90.25
2024-04-18T04:13:26.358Z,90.25
2024-04-18T04:14:26.298Z,90.35
2024-04-18T04:15:26.373Z,90.35
2024-04-18T04:16:26.288Z,90.45
2024-04-18T04:17:26.295Z,90.45
2024-04-18T04:18:26.355Z,90.45
2024-04-18T04:19:26.331Z,90.45
2024-04-18T04:20:26.295Z,90.45
2024-04-18T04:21:27.008Z,90.35
2024-04-18T04:22:26.196Z,90.31
2024-04-18T04:23:26.199Z,90.25
2024-04-18T04:24:26.180Z,90.25
2024-04-18T04:25:26.207Z,90.25
2024-04-18T04:26:26.175Z,90.35
2024-04-18T04:27:26.246Z,90.41
2024-04-18T04:28:26.679Z,90.31
2024-04-18T04:29:26.169Z,90.20
2024-04-18T04:30:26.134Z,90.20
2024-04-18T04:31:26.098Z,90.14
2024-04-18T04:32:26.187Z,90.10
2024-04-18T04:33:26.711Z,90.31
2024-04-18T04:34:26.064Z,90.45
2024-04-18T04:35:26.042Z,90.45
2024-04-18T04:36:26.069Z,90.41
2024-04-18T04:37:26.048Z,90.41
2024-04-18T04:38:26.919Z,90.41
2024-04-18T04:39:26.056Z,90.52
2024-04-18T04:40:26.001Z,90.62
2024-04-18T04:41:26.020Z,90.72
2024-04-18T04:42:26.023Z,90.83
2024-04-18T04:43:25.964Z,90.83
2024-04-18T04:44:25.947Z,90.72
2024-04-18T04:45:25.986Z,90.72
2024-04-18T04:46:25.951Z,90.72
2024-04-18T04:47:25.927Z,90.72
2024-04-18T04:48:26.076Z,90.83
2024-04-18T04:49:25.933Z,90.93
2024-04-18T04:50:25.894Z,91.03
2024-04-18T04:51:25.872Z,91.14
2024-04-18T04:52:25.865Z,91.14
2024-04-18T04:53:25.958Z,91.24
2024-04-18T04:54:25.899Z,91.35
2024-04-18T04:55:25.848Z,91.35
2024-04-18T04:56:25.953Z,91.35
2024-04-18T04:57:25.852Z,91.24
2024-04-18T04:58:25.801Z,91.14
2024-04-18T04:59:25.825Z,91.14
2024-04-18T05:00:25.889Z,91.00
2024-04-18T05:01:25.807Z,90.89
2024-04-18T05:02:25.777Z,90.89
2024-04-18T05:03:25.781Z,90.89
2024-04-18T05:04:25.784Z,90.89
2024-04-18T05:05:25.714Z,90.89
2024-04-18T05:06:25.725Z,90.89
2024-04-18T05:07:25.708Z,90.89
2024-04-18T05:08:25.691Z,90.89
2024-04-18T05:09:25.768Z,90.89
2024-04-18T05:10:25.670Z,90.79
2024-04-18T05:11:25.715Z,90.79
2024-04-18T05:12:25.698Z,90.69
2024-04-18T05:13:25.628Z,90.37
2024-04-18T05:14:25.637Z,90.37
2024-04-18T05:15:25.659Z,90.48
2024-04-18T05:16:26.508Z,90.58
2024-04-18T05:17:25.598Z,90.69
2024-04-18T05:18:25.645Z,90.58
2024-04-18T05:19:25.824Z,90.48
2024-04-18T05:20:26.234Z,90.48
2024-04-18T05:21:25.624Z,90.27
2024-04-18T05:22:25.528Z,90.27
2024-04-18T05:23:25.528Z,90.27
2024-04-18T05:24:25.600Z,90.27
2024-04-18T05:25:26.183Z,90.27
2024-04-18T05:26:25.482Z,90.06
2024-04-18T05:27:25.491Z,90.17
2024-04-18T05:28:25.500Z,90.17
2024-04-18T05:29:25.451Z,90.17
2024-04-18T05:30:25.484Z,90.17
2024-04-18T05:31:25.629Z,90.12
2024-04-18T05:32:26.427Z,90.23
2024-04-18T05:33:25.829Z,90.02
2024-04-18T05:34:25.435Z,89.92
2024-04-18T05:35:25.431Z,89.92
2024-04-18T05:36:25.445Z,89.92
2024-04-18T05:37:25.366Z,90.02
2024-04-18T05:38:25.429Z,89.92
2024-04-18T05:39:25.357Z,89.81
2024-04-18T05:40:25.382Z,89.81
2024-04-18T05:41:25.342Z,89.71
2024-04-18T05:42:25.404Z,89.71
2024-04-18T05:43:25.320Z,89.61
2024-04-18T05:44:25.390Z,89.50
2024-04-18T05:45:25.370Z,89.50
2024-04-18T05:46:25.281Z,89.29
2024-04-18T05:47:25.413Z,89.40
2024-04-18T05:48:25.276Z,89.61
2024-04-18T05:49:26.183Z,89.71
2024-04-18T05:50:25.474Z,89.71
2024-04-18T05:51:25.658Z,89.71
2024-04-18T05:52:25.843Z,89.71
2024-04-18T05:53:25.406Z,89.40
2024-04-18T05:54:25.282Z,88.98
2024-04-18T05:55:25.286Z,88.98
2024-04-18T05:56:25.248Z,89.19
2024-04-18T05:57:25.237Z,89.29
2024-04-18T05:58:25.166Z,89.19
2024-04-18T05:59:25.253Z,88.88
2024-04-18T06:00:25.198Z,89.09
2024-04-18T06:01:25.139Z,89.40
2024-04-18T06:02:25.194Z,89.71
2024-04-18T06:03:25.122Z,89.61
2024-04-18T06:04:25.107Z,89.71
2024-04-18T06:05:25.919Z,89.54
2024-04-18T06:06:25.091Z,89.34
2024-04-18T06:07:25.031Z,89.23
2024-04-18T06:08:25.045Z,89.23
2024-04-18T06:09:25.069Z,89.03
2024-04-18T06:10:25.019Z,88.82
2024-04-18T06:11:25.408Z,88.82
2024-04-18T06:12:25.085Z,88.71
2024-04-18T06:13:24.988Z,88.30
2024-04-18T06:14:24.989Z,88.23
2024-04-18T06:15:25.021Z,88.51
2024-04-18T06:16:25.039Z,88.54
2024-04-18T06:17:24.927Z,88.65
2024-04-18T06:18:25.099Z,88.34
2024-04-18T06:19:26.976Z,88.13
2024-04-18T06:20:24.949Z,88.34
2024-04-18T06:21:25.445Z,88.54
2024-04-18T06:22:24.889Z,88.85
2024-04-18T06:23:24.952Z,88.85
2024-04-18T06:24:24.913Z,89.06
2024-04-18T06:25:25.016Z,89.17
2024-04-18T06:26:24.865Z,89.06
2024-04-18T06:27:24.839Z,88.85
2024-04-18T06:28:25.704Z,88.65
2024-04-18T06:29:24.801Z,88.75
2024-04-18T06:30:24.817Z,88.65
2024-04-18T06:31:24.825Z,88.65
2024-04-18T06:32:24.782Z,88.44
2024-04-18T06:33:25.021Z,88.13
2024-04-18T06:34:24.772Z,88.02
2024-04-18T06:35:24.741Z,88.34
2024-04-18T06:36:24.802Z,88.23
2024-04-18T06:37:24.711Z,87.86
2024-04-18T06:38:24.693Z,87.96
2024-04-18T06:39:24.779Z,88.28
2024-04-18T06:40:24.757Z,88.59
2024-04-18T06:41:25.272Z,88.79
2024-04-18T06:42:24.659Z,88.90
2024-04-18T06:43:25.264Z,88.90
2024-04-18T06:44:24.683Z,88.96
2024-04-18T06:45:24.689Z,88.96
2024-04-18T06:46:24.663Z,88.85
2024-04-18T06:47:24.641Z,88.85
2024-04-18T06:48:24.828Z,88.75
2024-04-18T06:49:24.591Z,88.54
2024-04-18T06:50:26.812Z,88.75
2024-04-18T06:51:24.701Z,88.85
2024-04-18T06:52:24.543Z,89.06
2024-04-18T06:53:24.542Z,89.17
2024-04-18T06:54:24.676Z,89.17
2024-04-18T06:55:24.505Z,89.06
2024-04-18T06:56:24.550Z,88.96
2024-04-18T06:57:24.515Z,88.75
2024-04-18T06:58:24.505Z,88.65
2024-04-18T06:59:24.510Z,88.65
2024-04-18T07:00:24.582Z,88.65
2024-04-18T07:01:24.587Z,88.44
2024-04-18T07:02:24.445Z,88.34
2024-04-18T07:03:24.587Z,88.40
2024-04-18T07:04:24.489Z,88.61
2024-04-18T07:05:24.409Z,88.61
2024-04-18T07:06:24.423Z,88.71
2024-04-18T07:07:24.408Z,88.71
2024-04-18T07:08:24.815Z,88.61
2024-04-18T07:09:24.452Z,88.40
2024-04-18T07:10:24.354Z,88.09
2024-04-18T07:11:24.419Z,87.68
2024-04-18T07:12:24.424Z,87.68
2024-04-18T07:13:24.348Z,87.68
2024-04-18T07:14:24.353Z,87.68
2024-04-18T07:15:24.315Z,87.78
2024-04-18T07:16:24.277Z,87.78
2024-04-18T07:17:25.095Z,87.78
2024-04-18T07:18:24.422Z,87.88
2024-04-18T07:19:24.330Z,87.95
2024-04-18T07:20:24.236Z,88.05
2024-04-18T07:21:24.871Z,88.26
2024-04-18T07:22:24.263Z,88.26
2024-04-18T07:23:24.230Z,88.26
2024-04-18T07:24:24.280Z,88.15
2024-04-18T07:25:24.177Z,87.90
2024-04-18T07:26:24.187Z,87.80
2024-04-18T07:27:24.212Z,87.38
2024-04-18T07:28:24.232Z,87.38
2024-04-18T07:29:24.157Z,87.49
2024-04-18T07:30:24.168Z,87.28
2024-04-18T07:31:24.216Z,87.35
2024-04-18T07:32:24.112Z,87.24
2024-04-18T07:33:24.251Z,87.24
2024-04-18T07:34:24.230Z,87.14
2024-04-18T07:35:24.185Z,86.72
2024-04-18T07:36:24.093Z,86.52
2024-04-18T07:37:24.124Z,86.72
2024-04-18T07:38:24.072Z,86.72
2024-04-18T07:39:24.085Z,86.83
2024-04-18T07:40:24.070Z,86.93
2024-04-18T07:41:24.050Z,86.99
2024-04-18T07:42:24.103Z,86.89
2024-04-18T07:43:24.004Z,86.62
2024-04-18T07:44:24.915Z,86.83
2024-04-18T07:45:24.005Z,86.93
2024-04-18T07:46:23.973Z,86.68
2024-04-18T07:47:24.188Z,86.47
2024-04-18T07:48:24.029Z,86.79
2024-04-18T07:49:23.980Z,86.89
2024-04-18T07:50:23.922Z,86.68
2024-04-18T07:51:23.922Z,86.58
2024-04-18T07:52:24.041Z,86.68
2024-04-18T07:53:23.884Z,86.65
2024-04-18T07:54:23.883Z,86.65
2024-04-18T07:55:23.880Z,86.54
2024-04-18T07:56:24.276Z,86.54
2024-04-18T07:57:24.465Z,86.91
2024-04-18T07:58:24.369Z,86.91
2024-04-18T07:59:24.248Z,86.81
2024-04-18T08:00:24.844Z,86.71
2024-04-18T08:01:25.202Z,86.57
2024-04-18T08:02:25.254Z,86.36
2024-04-18T08:03:25.981Z,86.46
2024-04-18T08:04:44.954Z,86.36
2024-04-18T08:05:26.636Z,85.63
2024-04-18T08:06:26.488Z,85.53
2024-04-18T08:07:26.491Z,85.84
2024-04-18T08:08:27.410Z,85.94
2024-04-18T08:09:25.942Z,86.05
2024-04-18T08:10:28.553Z,86.11
2024-04-18T08:11:53.023Z,86.01
2024-04-18T08:12:27.878Z,85.70
2024-04-18T08:13:27.688Z,85.49
2024-04-18T08:14:27.500Z,85.18
2024-04-18T08:16:23.677Z,84.36
2024-04-18T08:17:23.766Z,84.56
2024-04-18T08:18:23.619Z,84.73
2024-04-18T08:19:24.495Z,84.83
2024-04-18T08:20:23.633Z,85.04
2024-04-18T08:21:23.604Z,84.83
2024-04-18T08:22:23.600Z,84.59
2024-04-18T08:23:23.612Z,84.48
2024-04-18T08:24:23.548Z,84.59
2024-04-18T08:25:23.633Z,84.48
2024-04-18T08:26:23.527Z,83.55
2024-04-18T08:27:23.640Z,83.83
2024-04-18T08:28:23.575Z,83.31
2024-04-18T08:29:23.483Z,83.00
2024-04-18T08:30:23.622Z,82.89
2024-04-18T08:31:23.469Z,81.86
2024-04-18T08:32:23.455Z,82.17
2024-04-18T08:33:23.520Z,82.38
2024-04-18T08:34:24.691Z,82.31
2024-04-18T08:35:23.427Z,81.80
2024-04-18T08:36:23.484Z,82.00
2024-04-18T08:37:23.407Z,82.52
2024-04-18T08:38:23.563Z,82.83
2024-04-18T08:39:23.459Z,82.83
2024-04-18T08:40:23.352Z,82.42
2024-04-18T08:41:23.409Z,82.76
2024-04-18T08:42:23.373Z,83.45
2024-04-18T08:43:23.388Z,83.55
2024-04-18T08:44:23.300Z,83.97
2024-04-18T08:45:23.361Z,84.17
2024-04-18T08:46:23.342Z,84.28
2024-04-18T08:47:23.335Z,84.07
2024-04-18T08:48:23.660Z,83.45
2024-04-18T08:49:23.391Z,83.25
2024-04-18T08:50:23.327Z,83.55
2024-04-18T08:51:23.266Z,83.76
2024-04-18T08:52:23.233Z,84.07
2024-04-18T08:53:24.352Z,83.65
2024-04-18T08:54:23.375Z,83.04
2024-04-18T08:55:23.219Z,82.62
2024-04-18T08:56:23.255Z,82.93
2024-04-18T08:57:23.194Z,83.14
2024-04-18T08:58:23.931Z,83.04
2024-04-18T08:59:23.143Z,83.25
2024-04-18T09:00:23.166Z,83.25
2024-04-18T09:01:23.189Z,83.20
2024-04-18T09:02:23.143Z,82.48
2024-04-18T09:03:23.163Z,82.42
2024-04-18T09:04:23.100Z,82.69
2024-04-18T09:05:23.135Z,83.10
2024-04-18T09:06:23.143Z,82.79
2024-04-18T09:07:23.147Z,82.89
2024-04-18T09:08:23.102Z,82.79
2024-04-18T09:09:23.097Z,82.89
2024-04-18T09:10:23.045Z,82.89
2024-04-18T09:11:23.063Z,82.89
2024-04-18T09:12:23.039Z,82.28
2024-04-18T09:13:24.170Z,81.56
2024-04-18T09:14:23.011Z,81.04
2024-04-18T09:15:23.097Z,80.97
2024-04-18T09:16:22.990Z,81.28
2024-04-18T09:17:23.027Z,80.66
2024-04-18T09:18:23.007Z,81.07
2024-04-18T09:19:23.033Z,81.70
2024-04-18T09:20:22.934Z,81.70
2024-04-18T09:21:23.071Z,82.00
2024-04-18T09:22:22.912Z,81.90
2024-04-18T09:23:22.889Z,81.90
2024-04-18T09:24:22.897Z,81.07
2024-04-18T09:25:22.871Z,80.76
2024-04-18T09:26:22.884Z,80.76
2024-04-18T09:27:22.849Z,81.07
2024-04-18T09:28:22.876Z,81.28
2024-04-18T09:29:22.835Z,81.07
2024-04-18T09:30:22.968Z,81.18
2024-04-18T09:31:30.395Z,80.32
2024-04-18T09:32:22.804Z,79.69
2024-04-18T09:33:22.870Z,80.11
2024-04-18T09:34:22.838Z,80.21
2024-04-18T09:35:22.775Z,80.42
2024-04-18T09:36:22.765Z,79.11
2024-04-18T09:37:22.776Z,79.83
2024-04-18T09:38:22.713Z,80.87
2024-04-18T09:39:22.818Z,80.83
2024-04-18T09:40:22.750Z,80.00
2024-04-18T09:41:22.686Z,79.32
2024-04-18T09:42:22.719Z,79.32
2024-04-18T09:43:22.726Z,79.97
2024-04-18T09:44:24.253Z,79.91
2024-04-18T09:45:22.750Z,81.56
2024-04-18T09:46:22.647Z,81.98
2024-04-18T09:47:22.631Z,80.77
2024-04-18T09:48:22.763Z,81.39
2024-04-18T09:49:22.718Z,81.33
2024-04-18T09:50:22.583Z,82.05
2024-04-18T09:51:22.614Z,83.09
2024-04-18T09:52:22.594Z,83.09
2024-04-18T09:53:22.630Z,83.29
2024-04-18T09:54:22.563Z,83.19
2024-04-18T09:55:24.442Z,83.19
2024-04-18T09:56:22.518Z,83.23
2024-04-18T09:57:22.615Z,84.06
2024-04-18T09:58:22.513Z,84.68
2024-04-18T09:59:22.505Z,84.88
2024-04-18T10:00:22.505Z,84.37
2024-04-18T10:01:22.499Z,84.68
2024-04-18T10:02:22.608Z,85.50
2024-04-18T10:03:22.538Z,85.92
2024-04-18T10:04:22.472Z,86.13
2024-04-18T10:05:22.439Z,85.47
2024-04-18T10:06:22.440Z,84.84
2024-04-18T10:07:22.428Z,84.74
2024-04-18T10:08:22.403Z,84.95
2024-04-18T10:09:22.468Z,84.84
2024-04-18T10:10:22.393Z,83.61
2024-04-18T10:11:22.614Z,84.01
2024-04-18T10:12:22.367Z,84.64
2024-04-18T10:13:22.977Z,85.16
2024-04-18T10:14:22.362Z,84.74
2024-04-18T10:15:22.368Z,85.05
2024-04-18T10:16:22.332Z,85.36
2024-04-18T10:17:22.356Z,85.16
2024-04-18T10:18:22.951Z,85.42
2024-04-18T10:19:22.405Z,85.53
2024-04-18T10:20:22.254Z,84.91
2024-04-18T10:21:28.578Z,83.29
2024-04-18T10:22:29.567Z,82.67
2024-04-18T10:23:22.295Z,83.71
2024-04-18T10:24:22.249Z,83.81
2024-04-18T10:25:22.232Z,83.81
2024-04-18T10:26:22.410Z,83.29
2024-04-18T10:27:22.314Z,83.19
2024-04-18T10:28:22.218Z,83.50
2024-04-18T10:29:22.169Z,83.81
2024-04-18T10:30:22.192Z,84.43
2024-04-18T10:31:22.156Z,84.95
2024-04-18T10:32:22.209Z,85.32
2024-04-18T10:33:22.202Z,85.32
2024-04-18T10:34:22.181Z,85.32
2024-04-18T10:35:22.123Z,85.39
2024-04-18T10:36:22.418Z,85.39
2024-04-18T10:37:22.188Z,83.94
2024-04-18T10:38:22.045Z,84.15
2024-04-18T10:39:22.092Z,84.56
2024-04-18T10:40:22.071Z,84.11
2024-04-18T10:41:22.036Z,82.76
2024-04-18T10:42:22.216Z,81.73
2024-04-18T10:43:22.015Z,81.80
2024-04-18T10:44:22.003Z,82.31
2024-04-18T10:45:22.021Z,82.00
2024-04-18T10:46:21.984Z,82.07
2024-04-18T10:47:21.979Z,82.28
2024-04-18T10:48:22.182Z,81.96
2024-04-18T10:49:22.007Z,80.93
2024-04-18T10:50:21.954Z,81.35
2024-04-18T10:51:21.954Z,81.62
2024-04-18T10:52:21.907Z,81.62
2024-04-18T10:53:21.890Z,81.31
2024-04-18T10:54:21.934Z,79.35
2024-04-18T10:55:21.892Z,78.94
2024-04-18T10:56:21.877Z,80.28
2024-04-18T10:57:21.920Z,79.35
2024-04-18T10:58:21.857Z,78.73
2024-04-18T10:59:21.823Z,78.11
2024-04-18T11:00:21.937Z,79.04
2024-04-18T11:01:21.921Z,79.25
2024-04-18T11:02:21.948Z,78.90
2024-04-18T11:03:21.930Z,78.11
2024-04-18T11:04:21.818Z,77.28
2024-04-18T11:05:21.779Z,76.25
2024-04-18T11:06:21.768Z,76.87
2024-04-18T11:07:21.732Z,77.56
2024-04-18T11:08:21.717Z,78.28
2024-04-18T11:09:21.755Z,77.87
2024-04-18T11:10:21.709Z,77.15
2024-04-18T11:11:21.777Z,77.22
2024-04-18T11:12:21.831Z,76.70
2024-04-18T11:13:21.682Z,77.01
2024-04-18T11:14:21.659Z,75.05
2024-04-18T11:15:21.704Z,72.78
2024-04-18T11:16:21.693Z,73.71
2024-04-18T11:17:21.629Z,74.33
2024-04-18T11:18:21.706Z,74.84
2024-04-18T11:19:21.679Z,73.98
2024-04-18T11:20:21.643Z,72.85
2024-04-18T11:21:21.602Z,73.05
2024-04-18T11:22:21.580Z,71.61
2024-04-18T11:23:24.480Z,71.00
2024-04-18T11:24:21.620Z,70.68
2024-04-18T11:25:21.537Z,71.00
2024-04-18T11:26:21.547Z,71.72
2024-04-18T11:27:21.590Z,71.99
2024-04-18T11:28:21.536Z,70.55
2024-04-18T11:29:21.493Z,70.76
2024-04-18T11:30:21.527Z,70.04
2024-04-18T11:31:21.525Z,70.34
2024-04-18T11:32:21.528Z,70.24
2024-04-18T11:33:21.548Z,70.34
2024-04-18T11:34:21.475Z,70.14
2024-04-18T11:35:21.417Z,70.04
2024-04-18T11:36:21.454Z,71.24
2024-04-18T11:37:21.400Z,70.83
2024-04-18T11:38:21.437Z,71.55
2024-04-18T11:39:21.400Z,72.85
2024-04-18T11:40:21.385Z,70.79
2024-04-18T11:41:21.355Z,71.31
2024-04-18T11:42:21.382Z,71.92
2024-04-18T11:43:21.347Z,72.24
2024-04-18T11:44:21.327Z,70.59
2024-04-18T11:45:21.346Z,70.56
2024-04-18T11:46:21.306Z,71.92
2024-04-18T11:47:21.353Z,72.34
2024-04-18T11:48:21.399Z,72.75
2024-04-18T11:49:21.315Z,72.44
2024-04-18T11:50:21.286Z,73.26
2024-04-18T11:51:21.280Z,73.16
2024-04-18T11:52:21.316Z,72.37
2024-04-18T11:53:21.355Z,71.75
2024-04-18T11:54:21.265Z,71.75
2024-04-18T11:55:21.204Z,72.09
2024-04-18T11:56:21.208Z,72.51
2024-04-18T11:57:21.213Z,72.88
2024-04-18T11:58:21.175Z,72.47
2024-04-18T11:59:21.184Z,71.86
2024-04-18T12:00:22.067Z,71.00
2024-04-18T12:01:21.167Z,71.20
2024-04-18T12:02:21.134Z,70.69
2024-04-18T12:03:21.223Z,69.87
2024-04-18T12:04:21.198Z,69.87
2024-04-18T12:05:21.148Z,69.35
2024-04-18T12:06:21.150Z,68.29
2024-04-18T12:07:21.116Z,68.70
2024-04-18T12:08:21.075Z,68.19
2024-04-18T12:09:21.140Z,68.70
2024-04-18T12:10:21.054Z,68.08
2024-04-18T12:11:21.057Z,65.89
2024-04-18T12:12:21.060Z,65.08
2024-04-18T12:13:21.009Z,65.38
2024-04-18T12:14:20.998Z,65.28
2024-04-18T12:15:21.115Z,66.41
2024-04-18T12:16:21.046Z,65.28
2024-04-18T12:17:20.974Z,66.93
2024-04-18T12:18:20.968Z,67.10
2024-04-18T12:19:21.017Z,65.45
2024-04-18T12:20:21.112Z,66.07
2024-04-18T12:21:21.116Z,67.10
2024-04-18T12:22:21.119Z,66.69
2024-04-18T12:23:21.062Z,66.58
2024-04-18T12:24:21.303Z,65.97
2024-04-18T12:25:20.973Z,65.77
2024-04-18T12:26:20.941Z,66.79
2024-04-18T12:27:20.917Z,66.07
2024-04-18T12:28:20.902Z,66.28
2024-04-18T12:29:20.825Z,66.17
2024-04-18T12:30:20.920Z,66.58
2024-04-18T12:31:20.829Z,67.20
2024-04-18T12:32:20.893Z,69.32
2024-04-18T12:33:20.995Z,70.56
2024-04-18T12:34:20.790Z,71.17
2024-04-18T12:35:20.789Z,71.89
2024-04-18T12:36:20.784Z,71.38
2024-04-18T12:37:20.791Z,70.76
2024-04-18T12:38:20.754Z,70.66
2024-04-18T12:39:20.765Z,71.17
2024-04-18T12:40:20.730Z,72.20
2024-04-18T12:41:20.701Z,71.79
2024-04-18T12:42:20.722Z,71.17
2024-04-18T12:43:20.700Z,71.38
2024-04-18T12:44:21.454Z,70.25
2024-04-18T12:45:20.749Z,70.76
2024-04-18T12:46:23.874Z,71.28
2024-04-18T12:47:20.694Z,70.97
2024-04-18T12:48:20.755Z,70.66
2024-04-18T12:49:20.839Z,69.77
2024-04-18T12:50:20.667Z,69.70
2024-04-18T12:51:20.692Z,70.97
2024-04-18T12:52:20.594Z,71.62
2024-04-18T12:53:20.574Z,71.62